createdAt,value
2023-05-08T00:03:09.848Z,14.51
2023-05-08T00:06:37.466Z,14.42
2023-05-08T00:10:05.067Z,14.36
2023-05-08T00:13:32.783Z,14.33
2023-05-08T00:16:21.550Z,14.24
2023-05-08T00:19:49.553Z,14.17
2023-05-08T00:23:17.332Z,13.97
2023-05-08T00:26:45.032Z,13.90
2023-05-08T00:30:13.056Z,13.82
2023-05-08T00:33:40.808Z,13.69
2023-05-08T00:37:08.687Z,13.56
2023-05-08T00:40:36.499Z,13.41
2023-05-08T00:44:04.389Z,13.24
2023-05-08T00:47:32.366Z,13.09
2023-05-08T00:51:00.403Z,12.87
2023-05-08T00:54:28.327Z,12.75
2023-05-08T00:57:37.339Z,12.59
2023-05-08T01:01:05.176Z,12.36
2023-05-08T01:04:32.928Z,12.26
2023-05-08T01:08:00.761Z,12.21
2023-05-08T01:11:08.820Z,12.10
2023-05-08T01:14:36.718Z,11.97
2023-05-08T01:17:26.352Z,11.93
2023-05-08T01:20:54.107Z,11.83
2023-05-08T01:24:21.857Z,11.75
2023-05-08T01:27:49.715Z,11.68
2023-05-08T01:31:17.880Z,11.61
2023-05-08T01:34:45.641Z,11.49
2023-05-08T01:37:44.230Z,11.39
2023-05-08T01:41:12.235Z,11.33
2023-05-08T01:44:40.263Z,11.19
2023-05-08T01:48:08.354Z,10.91
2023-05-08T01:51:36.120Z,10.76
2023-05-08T01:55:04.111Z,10.64
2023-05-08T01:58:31.973Z,10.57
2023-05-08T02:01:59.930Z,10.44
2023-05-08T02:05:08.858Z,10.31
2023-05-08T02:08:36.748Z,10.25
2023-05-08T02:12:04.607Z,10.18
2023-05-08T02:15:32.417Z,10.09
2023-05-08T02:19:00.379Z,9.97
2023-05-08T02:21:48.858Z,9.88
2023-05-08T02:25:16.823Z,9.82
2023-05-08T02:28:44.577Z,9.77
2023-05-08T02:32:12.630Z,9.72
2023-05-08T02:35:40.780Z,9.64
2023-05-08T02:39:08.640Z,9.59
2023-05-08T02:41:57.301Z,9.55
2023-05-08T02:45:25.039Z,9.46
2023-05-08T02:48:52.832Z,9.40
2023-05-08T02:52:20.809Z,9.37
2023-05-08T02:55:48.522Z,9.26
2023-05-08T02:58:42.353Z,9.23
2023-05-08T03:02:10.508Z,9.19
2023-05-08T03:05:21.942Z,9.16
2023-05-08T03:08:49.888Z,9.14
2023-05-08T03:11:34.840Z,9.04
2023-05-08T03:14:26.060Z,9.01
2023-05-08T03:17:12.883Z,8.93
2023-05-08T03:20:40.828Z,8.90
2023-05-08T03:24:08.447Z,8.85
2023-05-08T03:27:36.434Z,8.81
2023-05-08T03:31:04.326Z,8.78
2023-05-08T03:34:13.604Z,8.76
2023-05-08T03:37:41.494Z,8.71
2023-05-08T03:41:09.157Z,8.67
2023-05-08T03:44:24.700Z,8.65
2023-05-08T03:47:52.534Z,8.60
2023-05-08T03:51:08.895Z,8.55
2023-05-08T03:54:36.836Z,8.55
2023-05-08T03:57:45.616Z,8.49
2023-05-08T04:01:09.865Z,8.42
2023-05-08T04:04:37.531Z,8.33
2023-05-08T04:07:27.382Z,8.30
2023-05-08T04:10:20.143Z,8.25
2023-05-08T04:13:47.877Z,8.15
2023-05-08T04:17:15.679Z,7.99
2023-05-08T04:20:16.053Z,7.94
2023-05-08T04:23:05.823Z,7.90
2023-05-08T04:26:34.060Z,7.82
2023-05-08T04:30:01.784Z,7.74
2023-05-08T04:33:29.830Z,7.72
2023-05-08T04:36:45.530Z,7.73
2023-05-08T04:39:54.522Z,7.73
2023-05-08T04:43:03.310Z,7.74
2023-05-08T04:45:59.897Z,7.75
2023-05-08T04:49:23.391Z,7.77
2023-05-08T04:52:33.451Z,7.76
2023-05-08T04:55:03.153Z,7.71
2023-05-08T04:58:31.091Z,7.68
2023-05-08T05:01:58.928Z,7.66
2023-05-08T05:05:26.895Z,7.59
2023-05-08T05:08:54.760Z,7.60
2023-05-08T05:11:48.235Z,7.58
2023-05-08T05:15:16.152Z,7.57
2023-05-08T05:18:43.822Z,7.51
2023-05-08T05:22:11.756Z,7.59
2023-05-08T05:25:39.814Z,7.65
2023-05-08T05:28:48.398Z,7.71
2023-05-08T05:31:37.347Z,7.76
2023-05-08T05:35:09.477Z,7.79
2023-05-08T05:38:37.487Z,7.82
2023-05-08T05:42:05.809Z,7.83
2023-05-08T05:45:33.933Z,7.86
2023-05-08T05:49:01.836Z,7.85
2023-05-08T05:52:29.621Z,7.87
2023-05-08T05:55:39.545Z,7.84
2023-05-08T05:58:47.498Z,7.85
2023-05-08T06:02:16.155Z,7.89
2023-05-08T06:05:25.235Z,7.89
2023-05-08T06:08:15.691Z,7.89
2023-05-08T06:11:07.938Z,7.94
2023-05-08T06:14:16.551Z,8.04
2023-05-08T06:17:28.621Z,8.15
2023-05-08T06:20:32.505Z,8.24
2023-05-08T06:24:00.451Z,8.30
2023-05-08T06:27:28.258Z,8.41
2023-05-08T06:30:56.706Z,8.52
2023-05-08T06:33:46.244Z,8.57
2023-05-08T06:37:14.593Z,8.65
2023-05-08T06:40:42.470Z,8.73
2023-05-08T06:43:31.264Z,8.78
2023-05-08T06:46:59.220Z,8.85
2023-05-08T06:50:26.926Z,8.88
2023-05-08T06:53:54.691Z,8.91
2023-05-08T06:57:22.907Z,9.20
2023-05-08T07:00:50.593Z,9.51
2023-05-08T07:04:13.459Z,9.82
2023-05-08T07:07:41.477Z,9.90
2023-05-08T07:11:09.316Z,10.09
2023-05-08T07:14:36.914Z,10.20
2023-05-08T07:18:05.337Z,10.40
2023-05-08T07:21:32.674Z,10.63
2023-05-08T07:25:00.349Z,10.96
2023-05-08T07:28:28.009Z,11.19
2023-05-08T07:31:55.799Z,11.30
2023-05-08T07:35:08.979Z,11.27
2023-05-08T07:38:14.149Z,11.29
2023-05-08T07:48:19.120Z,11.44
2023-05-08T07:51:47.317Z,11.37
2023-05-08T07:55:03.674Z,11.51
2023-05-08T07:58:31.537Z,11.55
2023-05-08T08:01:47.619Z,11.53
2023-05-08T08:04:56.463Z,11.61
2023-05-08T08:08:24.266Z,11.62
2023-05-08T08:11:32.468Z,11.58
2023-05-08T08:15:00.317Z,11.65
2023-05-08T08:18:08.996Z,11.79
2023-05-08T08:21:36.369Z,11.97
2023-05-08T08:25:03.823Z,12.16
2023-05-08T08:28:12.482Z,12.36
2023-05-08T08:31:40.265Z,12.48
2023-05-08T08:35:07.720Z,12.58
2023-05-08T08:38:19.346Z,12.78
2023-05-08T08:41:08.928Z,13.04
2023-05-08T08:44:37.664Z,13.32
2023-05-08T08:48:04.332Z,13.59
2023-05-08T08:51:32.041Z,13.72
2023-05-08T08:54:59.556Z,13.79
2023-05-08T08:58:27.263Z,14.01
2023-05-08T09:01:54.854Z,14.17
2023-05-08T09:05:22.520Z,14.46
2023-05-08T09:08:50.174Z,14.63
2023-05-08T09:12:18.066Z,14.75
2023-05-08T09:19:05.008Z,15.06
2023-05-08T09:22:32.910Z,15.17
2023-05-08T09:25:57.904Z,15.30
2023-05-08T09:29:22.384Z,15.48
2023-05-08T09:32:50.231Z,15.64
2023-05-08T09:35:57.753Z,15.72
2023-05-08T09:39:20.810Z,16.01
2023-05-08T09:42:25.784Z,16.41
2023-05-08T09:45:53.528Z,16.77
2023-05-08T09:49:21.980Z,17.24
2023-05-08T09:52:30.851Z,17.51
2023-05-08T09:55:58.456Z,17.48
2023-05-08T09:59:07.126Z,17.50
2023-05-08T10:01:57.374Z,17.46
2023-05-08T10:05:20.060Z,17.44
2023-05-08T10:08:47.595Z,17.35
2023-05-08T10:12:16.226Z,17.21
2023-05-08T10:15:43.910Z,17.35
2023-05-08T10:19:11.300Z,17.46
2023-05-08T10:22:39.136Z,17.50
2023-05-08T10:26:06.909Z,17.48
2023-05-08T10:29:30.817Z,17.38
2023-05-08T10:32:39.765Z,17.60
2023-05-08T10:35:49.962Z,17.74
2023-05-08T10:39:18.524Z,17.73
2023-05-08T10:42:26.932Z,17.73
2023-05-08T10:45:39.086Z,17.76
2023-05-08T10:48:48.683Z,18.03
2023-05-08T10:52:14.839Z,18.34
2023-05-08T10:55:24.558Z,18.59
2023-05-08T10:58:28.581Z,18.61
2023-05-08T11:01:56.179Z,18.76
2023-05-08T11:05:23.630Z,18.88
2023-05-08T11:08:35.135Z,19.00
2023-05-08T11:11:44.795Z,19.26
2023-05-08T11:15:00.293Z,19.44
2023-05-08T11:18:08.481Z,19.62
2023-05-08T11:21:17.032Z,19.46
2023-05-08T11:24:44.730Z,19.32
2023-05-08T11:28:13.566Z,19.42
2023-05-08T11:31:30.856Z,19.27
2023-05-08T11:34:19.085Z,19.32
2023-05-08T11:37:46.514Z,19.46
2023-05-08T11:41:14.268Z,19.49
2023-05-08T11:44:22.416Z,19.55
2023-05-08T11:47:30.770Z,19.74
2023-05-08T11:50:42.395Z,19.51
2023-05-08T11:53:58.488Z,19.41
2023-05-08T11:57:27.196Z,19.47
2023-05-08T12:00:37.076Z,19.52
2023-05-08T12:04:04.858Z,19.64
2023-05-08T12:07:32.201Z,19.98
2023-05-08T12:10:40.588Z,20.35
2023-05-08T12:14:11.036Z,20.79
2023-05-08T12:17:38.648Z,21.06
2023-05-08T12:21:06.403Z,21.22
2023-05-08T12:24:34.283Z,21.66
2023-05-08T12:28:02.196Z,22.13
2023-05-08T12:31:18.811Z,22.40
2023-05-08T12:34:15.115Z,22.42
2023-05-08T12:37:42.718Z,22.64
2023-05-08T12:41:10.472Z,23.01
2023-05-08T12:44:01.575Z,23.29
2023-05-08T12:46:51.548Z,23.60
2023-05-08T12:50:18.887Z,23.58
2023-05-08T12:53:28.393Z,23.51
2023-05-08T12:56:16.598Z,23.59
2023-05-08T12:59:25.319Z,23.87
2023-05-08T13:02:53.175Z,23.97
2023-05-08T13:06:04.418Z,24.12
2023-05-08T13:09:13.299Z,24.13
2023-05-08T13:12:04.142Z,24.35
2023-05-08T13:15:31.676Z,24.73
2023-05-08T13:18:43.550Z,24.89
2023-05-08T13:21:34.063Z,25.02
2023-05-08T13:24:42.879Z,25.15
2023-05-08T13:27:52.048Z,24.94
2023-05-08T13:30:40.695Z,25.09
2023-05-08T13:33:52.788Z,25.21
2023-05-08T13:37:01.201Z,25.75
2023-05-08T13:40:20.594Z,25.75
2023-05-08T13:43:25.667Z,25.25
2023-05-08T13:46:33.396Z,25.37
2023-05-08T13:50:00.777Z,25.34
2023-05-08T13:53:09.598Z,25.44
2023-05-08T13:56:18.078Z,25.64
2023-05-08T13:59:26.582Z,24.78
2023-05-08T14:02:16.414Z,23.74
2023-05-08T14:05:26.091Z,22.87
2023-05-08T14:08:55.446Z,23.56
2023-05-08T14:12:21.830Z,24.49
2023-05-08T14:15:37.966Z,24.53
2023-05-08T14:19:05.384Z,24.94
2023-05-08T14:22:14.361Z,25.35
2023-05-08T14:25:23.489Z,25.95
2023-05-08T14:28:51.232Z,26.13
2023-05-08T14:32:19.345Z,26.29
2023-05-08T14:35:42.910Z,26.69
2023-05-08T14:39:10.596Z,26.71
2023-05-08T14:42:26.406Z,27.35
2023-05-08T14:45:24.112Z,27.76
2023-05-08T14:48:33.822Z,27.73
2023-05-08T14:51:45.542Z,27.91
2023-05-08T14:54:49.315Z,28.41
2023-05-08T14:58:01.551Z,28.53
2023-05-08T15:00:54.726Z,27.79
2023-05-08T15:04:03.879Z,27.91
2023-05-08T15:07:31.796Z,27.15
2023-05-08T15:10:40.064Z,27.05
2023-05-08T15:14:07.781Z,27.40
2023-05-08T15:16:56.597Z,27.53
2023-05-08T15:19:46.419Z,27.25
2023-05-08T15:23:14.306Z,25.94
2023-05-08T15:26:42.115Z,24.80
2023-05-08T15:30:12.971Z,24.78
2023-05-08T15:33:22.417Z,23.75
2023-05-08T15:36:39.511Z,22.93
2023-05-08T15:40:07.380Z,22.36
2023-05-08T15:42:58.243Z,22.70
2023-05-08T15:46:08.169Z,22.53
2023-05-08T15:49:16.129Z,22.33
2023-05-08T15:52:40.301Z,22.20
2023-05-08T15:56:08.248Z,23.00
2023-05-08T15:59:16.105Z,23.46
2023-05-08T16:02:06.096Z,24.19
2023-05-08T16:05:33.824Z,25.02
2023-05-08T16:08:43.728Z,24.79
2023-05-08T16:12:11.650Z,25.26
2023-05-08T16:15:39.552Z,26.06
2023-05-08T16:18:48.475Z,26.28
2023-05-08T16:21:57.324Z,26.75
2023-05-08T16:25:25.381Z,27.27
2023-05-08T16:28:16.113Z,27.42
2023-05-08T16:31:43.847Z,27.43
2023-05-08T16:35:11.913Z,26.40
2023-05-08T16:38:20.676Z,24.99
2023-05-08T16:41:48.606Z,24.86
2023-05-08T16:45:16.432Z,24.96
2023-05-08T16:48:44.518Z,24.60
2023-05-08T16:51:52.238Z,24.47
2023-05-08T16:55:01.415Z,24.66
2023-05-08T16:58:29.171Z,24.93
2023-05-08T17:01:41.000Z,24.65
2023-05-08T17:05:08.805Z,24.80
2023-05-08T17:08:36.532Z,24.61
2023-05-08T17:11:28.844Z,24.04
2023-05-08T17:14:56.782Z,22.75
2023-05-08T17:18:24.478Z,21.58
2023-05-08T17:21:00.145Z,20.58
2023-05-08T17:23:50.054Z,20.05
2023-05-08T17:27:17.786Z,19.42
2023-05-08T17:30:10.161Z,18.93
2023-05-08T17:33:17.214Z,18.37
2023-05-08T17:36:45.227Z,17.87
2023-05-08T17:40:13.283Z,17.49
2023-05-08T17:43:20.516Z,17.11
2023-05-08T17:46:46.474Z,16.77
2023-05-08T17:50:14.337Z,16.51
2023-05-08T17:53:39.673Z,16.38
2023-05-08T17:56:47.859Z,16.23
2023-05-08T18:00:15.847Z,16.02
2023-05-08T18:03:07.933Z,15.86
2023-05-08T18:06:35.449Z,15.68
2023-05-08T18:09:10.991Z,15.52
2023-05-08T18:12:38.943Z,15.32
2023-05-08T18:15:47.628Z,15.13
2023-05-08T18:19:15.393Z,14.94
2023-05-08T18:22:24.154Z,14.82
2023-05-08T18:25:52.268Z,14.68
2023-05-08T18:29:20.051Z,14.54
2023-05-08T18:32:48.042Z,14.45
2023-05-08T18:35:36.653Z,14.39
2023-05-08T18:39:04.409Z,14.30
2023-05-08T18:42:32.197Z,14.20
2023-05-08T18:46:00.178Z,14.10
2023-05-08T18:48:49.436Z,13.95
2023-05-08T18:52:17.431Z,13.78
2023-05-08T18:55:25.335Z,13.64
2023-05-08T18:58:15.161Z,13.46
2023-05-08T19:01:04.111Z,13.30
2023-05-08T19:04:31.972Z,13.09
2023-05-08T19:07:59.703Z,12.93
2023-05-08T19:11:27.545Z,12.76
2023-05-08T19:14:37.266Z,12.63
2023-05-08T19:18:04.969Z,12.52
2023-05-08T19:21:28.468Z,12.45
2023-05-08T19:24:18.206Z,12.36
2023-05-08T19:27:46.123Z,12.24
2023-05-08T19:31:14.130Z,12.18
2023-05-08T19:34:41.911Z,12.08
2023-05-08T19:38:09.873Z,11.97
2023-05-08T19:41:22.437Z,11.87
2023-05-08T19:44:34.799Z,11.74
2023-05-08T19:47:43.424Z,11.66
2023-05-08T19:50:16.897Z,11.59
2023-05-08T19:53:25.761Z,11.45
2023-05-08T19:56:53.549Z,11.36
2023-05-08T20:00:20.220Z,11.28
2023-05-08T20:03:30.212Z,11.22
2023-05-08T20:06:45.953Z,11.18
2023-05-08T20:09:55.680Z,11.20
2023-05-08T20:13:11.649Z,11.17
2023-05-08T20:15:56.510Z,11.16
2023-05-08T20:18:50.294Z,11.09
2023-05-08T20:22:18.110Z,11.03
2023-05-08T20:25:25.162Z,10.99
2023-05-08T20:27:56.748Z,10.96
2023-05-08T20:31:24.550Z,10.87
2023-05-08T20:34:33.210Z,10.81
2023-05-08T20:38:01.226Z,10.74
2023-05-08T20:41:09.835Z,10.66
2023-05-08T20:43:47.959Z,10.59
2023-05-08T20:47:15.727Z,10.54
2023-05-08T20:50:24.131Z,10.54
2023-05-08T20:53:34.738Z,10.49
2023-05-08T20:56:58.237Z,10.45
2023-05-08T21:00:07.155Z,10.37
2023-05-08T21:03:15.917Z,10.32
2023-05-08T21:06:04.767Z,10.28
2023-05-08T21:09:27.928Z,10.19
2023-05-08T21:12:18.946Z,10.13
2023-05-08T21:15:27.805Z,10.11
2023-05-08T21:18:58.222Z,10.00
2023-05-08T21:22:23.558Z,9.92
2023-05-08T21:25:38.329Z,9.84
2023-05-08T21:29:13.683Z,9.75
2023-05-08T21:32:42.232Z,9.69
2023-05-08T21:35:52.160Z,9.61
2023-05-08T21:39:19.917Z,9.53
2023-05-08T21:42:28.170Z,9.45
2023-05-08T21:45:36.892Z,9.39
2023-05-08T21:48:52.867Z,9.34
2023-05-08T21:52:20.572Z,9.29
2023-05-08T21:55:11.591Z,9.26
2023-05-08T21:58:19.641Z,9.21
2023-05-08T22:01:47.587Z,9.14
2023-05-08T22:05:15.703Z,9.11
2023-05-08T22:08:27.959Z,9.05
2023-05-08T22:11:55.676Z,8.99
2023-05-08T22:15:29.675Z,8.91
2023-05-08T22:18:51.794Z,8.81
2023-05-08T22:22:07.358Z,8.79
2023-05-08T22:25:35.087Z,8.77
2023-05-08T22:29:02.842Z,8.71
2023-05-08T22:32:30.672Z,8.66
2023-05-08T22:35:58.450Z,8.63
2023-05-08T22:38:47.396Z,8.61
2023-05-08T22:41:56.048Z,8.58
2023-05-08T22:45:24.006Z,8.54
2023-05-08T22:48:51.951Z,8.50
2023-05-08T22:51:42.857Z,8.49
2023-05-08T22:55:10.573Z,8.46
2023-05-08T22:58:38.352Z,8.45
2023-05-08T23:01:50.042Z,8.42
2023-05-08T23:04:58.790Z,8.40
2023-05-08T23:08:26.616Z,8.37
2023-05-08T23:11:42.507Z,8.34
2023-05-08T23:14:54.640Z,8.29
2023-05-08T23:18:22.614Z,8.25
2023-05-08T23:21:30.354Z,8.21
2023-05-08T23:24:32.860Z,8.17
2023-05-08T23:27:56.828Z,8.11
2023-05-08T23:31:24.766Z,8.08
2023-05-08T23:34:52.407Z,8.03
2023-05-08T23:38:00.571Z,7.97
2023-05-08T23:41:23.954Z,7.93
2023-05-08T23:44:48.213Z,7.92
2023-05-08T23:48:15.995Z,7.89
2023-05-08T23:51:08.342Z,7.87
2023-05-08T23:54:31.279Z,7.84
2023-05-08T23:57:57.162Z,7.86
